Time;durP1;ratioP1;P1;durP2;ratioP2;P2;SDS_P1;SDS_P2;PMS_P1;PMS_P2;Temp;Humidity;BMP_temperature;BMP_pressure;BME280_temperature;BME280_humidity;BME280_pressure;Samples;Min_cycle;Max_cycle;Signal;HPM_P1;HPM_P2
2023/05/09 00:00:10;;;;;;;;;11.20;9.80;;;;;11.87;43.09;99899.91;5065227;28;8842;-78
2023/05/09 00:03:01;;;;;;;;;7.60;7.60;;;;;11.90;42.87;99898.97;5011807;28;8858;-80
2023/05/09 00:05:30;;;;;;;;;11.60;11.20;;;;;11.81;43.09;99905.28;5054289;28;8849;-79
2023/05/09 00:07:58;;;;;;;;;13.20;11.80;;;;;11.69;42.91;99914.31;5044962;28;8873;-78
2023/05/09 00:10:28;;;;;;;;;8.40;8.40;;;;;11.49;44.01;99905.91;5062156;28;8971;-80
2023/05/09 00:12:58;;;;;;;;;9.00;9.00;;;;;11.46;43.70;99898.06;5045190;28;9633;-79
2023/05/09 00:15:28;;;;;;;;;9.40;9.40;;;;;11.42;44.08;99894.63;4979806;28;8857;-80
2023/05/09 00:17:56;;;;;;;;;11.40;11.00;;;;;11.07;44.38;99888.25;5051612;28;8842;-80
2023/05/09 00:20:26;;;;;;;;;10.60;10.60;;;;;11.07;44.74;99892.66;5045494;28;8847;-79
2023/05/09 00:22:55;;;;;;;;;12.60;10.80;;;;;11.08;44.81;99887.34;5044964;28;8903;-79
2023/05/09 00:25:24;;;;;;;;;13.20;12.20;;;;;10.90;45.23;99885.91;5028788;28;8857;-79
2023/05/09 00:27:52;;;;;;;;;12.40;12.00;;;;;10.92;45.20;99897.28;5046381;28;8883;-78
2023/05/09 00:30:23;;;;;;;;;11.80;11.60;;;;;10.96;45.29;99885.81;5030723;28;8837;-81
2023/05/09 00:32:52;;;;;;;;;12.00;10.00;;;;;11.15;44.93;99881.09;5044944;28;8852;-81
2023/05/09 00:35:21;;;;;;;;;11.60;9.80;;;;;11.19;44.60;99881.91;5028050;28;8837;-80
2023/05/09 00:37:50;;;;;;;;;8.60;7.60;;;;;11.14;44.60;99881.09;5010887;28;8857;-79
2023/05/09 00:40:19;;;;;;;;;14.00;12.00;;;;;11.22;44.43;99891.50;5026814;28;8953;-81
2023/05/09 00:42:48;;;;;;;;;13.80;12.00;;;;;11.17;44.79;99887.19;5010480;28;8866;-80
2023/05/09 00:45:17;;;;;;;;;16.40;13.00;;;;;11.24;44.70;99884.44;5010945;28;8831;-79
2023/05/09 00:47:47;;;;;;;;;10.80;10.80;;;;;11.30;44.53;99881.72;5021090;28;8900;-80
2023/05/09 00:50:16;;;;;;;;;11.60;10.20;;;;;11.24;44.74;99885.31;4992203;28;8860;-80
2023/05/09 00:52:45;;;;;;;;;11.00;10.40;;;;;11.31;44.15;99883.44;4994082;28;8879;-80
2023/05/09 00:55:15;;;;;;;;;10.20;9.80;;;;;11.26;44.58;99878.25;5008114;28;8887;-79
2023/05/09 00:57:44;;;;;;;;;9.00;8.80;;;;;11.24;44.01;99885.31;4943485;28;8914;-79
2023/05/09 01:00:15;;;;;;;;;11.00;11.00;;;;;11.14;44.46;99882.00;5007418;28;8848;-78
2023/05/09 01:02:48;;;;;;;;;11.80;11.60;;;;;11.07;44.74;99883.00;4958663;28;8906;-79
2023/05/09 01:05:19;;;;;;;;;11.20;10.80;;;;;11.08;44.79;99883.84;4991123;28;8855;-80
2023/05/09 01:07:52;;;;;;;;;9.80;9.80;;;;;10.95;45.00;99885.81;4982762;28;8848;-80
2023/05/09 01:10:31;;;;;;;;;11.40;11.00;;;;;10.98;45.02;99885.78;5013651;28;8949;-77
2023/05/09 01:13:06;;;;;;;;;12.20;11.20;;;;;11.02;45.17;99881.34;5030578;28;8859;-79
2023/05/09 01:15:39;;;;;;;;;12.00;11.20;;;;;10.88;45.29;99877.19;5047755;28;8851;-79
2023/05/09 01:18:21;;;;;;;;;10.40;9.40;;;;;10.84;45.25;99880.75;5030928;28;8860;-80
2023/05/09 01:20:57;;;;;;;;;12.40;11.20;;;;;10.83;45.51;99875.53;5031395;28;8940;-80
2023/05/09 01:23:59;;;;;;;;;10.80;10.20;;;;;11.00;45.55;99868.19;5064808;28;8862;-79
2023/05/09 01:26:41;;;;;;;;;18.20;15.40;;;;;11.03;45.62;99862.91;5067866;28;8870;-82
2023/05/09 01:29:34;;;;;;;;;15.00;13.00;;;;;11.11;45.40;99861.00;5067877;28;8842;-79
2023/05/09 01:32:07;;;;;;;;;15.80;12.40;;;;;11.08;45.40;99868.94;5043008;28;8899;-82
2023/05/09 01:34:40;;;;;;;;;11.20;11.20;;;;;11.13;45.22;99869.72;5063579;28;8866;-82
2023/05/09 01:37:11;;;;;;;;;11.60;11.60;;;;;11.10;45.42;99861.88;5066347;28;8842;-79
2023/05/09 01:39:42;;;;;;;;;13.80;12.60;;;;;11.10;45.40;99866.28;5067830;28;8981;-80
2023/05/09 01:42:13;;;;;;;;;11.40;10.80;;;;;11.10;45.74;99863.66;5084689;28;8862;-79
2023/05/09 01:44:46;;;;;;;;;8.80;8.20;;;;;11.09;45.68;99859.28;5067323;28;8834;-80
2023/05/09 01:47:17;;;;;;;;;10.80;10.00;;;;;11.03;46.07;99859.38;5053112;28;8861;-80
2023/05/09 01:49:47;;;;;;;;;11.80;10.40;;;;;11.03;46.17;99864.63;5064602;28;9571;-79
2023/05/09 01:52:19;;;;;;;;;12.40;11.80;;;;;10.98;46.25;99860.34;5069516;28;9669;-79
2023/05/09 01:54:50;;;;;;;;;12.80;11.80;;;;;10.93;46.30;99854.28;5060129;28;8842;-79
2023/05/09 01:57:21;;;;;;;;;12.60;12.40;;;;;10.88;46.42;99858.78;5059311;28;8852;-79
2023/05/09 01:59:53;;;;;;;;;13.20;13.20;;;;;10.93;46.35;99858.69;5062491;28;10187;-78
2023/05/09 02:02:23;;;;;;;;;13.00;13.00;;;;;10.85;46.70;99866.69;5032461;28;8836;-77
2023/05/09 02:04:54;;;;;;;;;15.80;14.00;;;;;10.85;46.73;99866.69;5033023;28;8890;-79
2023/05/09 02:07:25;;;;;;;;;13.40;12.40;;;;;10.87;46.70;99861.41;5048704;28;9073;-80
2023/05/09 02:09:56;;;;;;;;;10.80;10.80;;;;;10.82;47.01;99869.38;4997135;28;8862;-80
2023/05/09 02:12:25;;;;;;;;;12.00;10.40;;;;;10.76;46.45;99874.75;5042012;28;8873;-78
2023/05/09 02:14:55;;;;;;;;;11.60;11.60;;;;;10.69;46.58;99871.31;5009864;28;8849;-80
2023/05/09 02:17:24;;;;;;;;;12.80;11.40;;;;;10.75;46.40;99865.13;5025921;28;8947;-78
2023/05/09 02:19:53;;;;;;;;;12.00;12.00;;;;;10.77;46.19;99873.88;5009370;28;9631;-79
2023/05/09 02:22:22;;;;;;;;;12.00;8.80;;;;;10.80;46.23;99871.16;4992638;28;9764;-78
2023/05/09 02:24:52;;;;;;;;;11.80;11.40;;;;;10.81;45.99;99865.03;5026086;28;8868;-78
2023/05/09 02:27:22;;;;;;;;;9.00;8.80;;;;;10.75;45.87;99867.75;5007115;28;8862;-79
2023/05/09 02:29:55;;;;;;;;;13.60;12.20;;;;;10.74;46.04;99866.88;5005410;28;8886;-79
2023/05/09 02:32:28;;;;;;;;;15.60;13.40;;;;;10.82;45.81;99865.88;5005830;28;8858;-80
2023/05/09 02:34:58;;;;;;;;;15.20;13.80;;;;;10.75;46.19;99866.00;4973487;28;8843;-79
2023/05/09 02:37:28;;;;;;;;;14.00;12.60;;;;;10.74;45.88;99860.75;4991311;28;8851;-79
2023/05/09 02:39:59;;;;;;;;;13.00;12.40;;;;;10.75;46.39;99857.25;4976626;28;8879;-79
2023/05/09 02:42:29;;;;;;;;;12.00;12.00;;;;;10.76;46.37;99854.59;5063602;28;8866;-78
2023/05/09 02:44:58;;;;;;;;;12.80;12.00;;;;;10.79;46.24;99858.94;5045593;28;8857;-78
2023/05/09 02:47:28;;;;;;;;;16.00;14.20;;;;;10.83;46.52;99854.47;5045444;28;8869;-78
2023/05/09 02:49:58;;;;;;;;;10.80;10.80;;;;;10.82;46.08;99845.69;5028925;28;8919;-80
2023/05/09 02:52:28;;;;;;;;;10.00;10.00;;;;;10.83;46.31;99855.34;5028424;28;8864;-80
2023/05/09 02:54:56;;;;;;;;;13.40;12.00;;;;;10.85;46.12;99860.59;5012585;28;8861;-81
2023/05/09 02:57:26;;;;;;;;;11.60;11.60;;;;;10.88;46.18;99863.13;5044829;28;8860;-80
2023/05/09 02:59:55;;;;;;;;;13.40;12.00;;;;;10.84;46.17;99866.72;5016128;28;9023;-80
2023/05/09 03:02:24;;;;;;;;;11.00;11.00;;;;;10.79;46.34;99858.94;5046353;28;8888;-81
2023/05/09 03:04:55;;;;;;;;;12.40;11.00;;;;;10.78;46.64;99871.22;5050988;28;8868;-79
2023/05/09 03:07:24;;;;;;;;;12.40;11.80;;;;;10.81;46.30;99870.28;5062994;28;8905;-81
2023/05/09 03:09:53;;;;;;;;;12.20;11.60;;;;;10.85;46.02;99876.38;5065863;28;8843;-80
2023/05/09 03:12:22;;;;;;;;;11.40;11.40;;;;;10.88;46.08;99882.44;5066031;28;8847;-80
2023/05/09 03:14:53;;;;;;;;;14.00;12.80;;;;;10.95;46.01;99889.34;5065617;28;8843;-79
2023/05/09 03:17:23;;;;;;;;;11.20;11.00;;;;;10.99;45.92;99884.88;5013799;28;8837;-79
2023/05/09 03:19:51;;;;;;;;;10.60;10.00;;;;;10.97;46.01;99890.19;5045776;28;8873;-80
2023/05/09 03:22:22;;;;;;;;;32.40;28.40;;;;;10.99;46.37;99892.75;5045391;28;9662;-79
2023/05/09 03:24:57;;;;;;;;;78.50;61.75;;;;;10.90;46.04;99899.06;5045501;28;8963;-79
2023/05/09 03:27:26;;;;;;;;;29.25;28.75;;;;;10.87;45.93;99891.22;5029212;28;9640;-82
2023/05/09 03:29:55;;;;;;;;;13.60;13.40;;;;;10.92;46.07;99896.41;5045507;28;8871;-79
2023/05/09 03:32:24;;;;;;;;;12.80;12.80;;;;;10.94;45.68;99892.84;5045562;28;8845;-80
2023/05/09 03:34:53;;;;;;;;;12.40;11.60;;;;;10.88;45.39;99892.97;5046902;28;9000;-79
2023/05/09 03:37:24;;;;;;;;;14.60;14.60;;;;;10.89;45.36;99897.31;5049783;28;8838;-79
2023/05/09 03:39:55;;;;;;;;;10.60;9.80;;;;;10.90;44.92;99895.56;5049049;28;8873;-79
2023/05/09 03:42:24;;;;;;;;;12.40;11.40;;;;;10.90;45.08;99906.09;5065385;28;8951;-79
2023/05/09 03:44:57;;;;;;;;;22.80;18.00;;;;;10.90;44.90;99904.31;5065607;28;8870;-80
2023/05/09 03:47:25;;;;;;;;;15.20;15.20;;;;;10.81;45.36;99906.25;5048866;28;8889;-80
2023/05/09 03:49:54;;;;;;;;;27.80;27.00;;;;;10.88;45.14;99900.84;5050850;28;8983;-78
2023/05/09 03:52:25;;;;;;;;;45.00;37.25;;;;;10.92;44.84;99913.06;5028769;28;8861;-80
2023/05/09 03:54:55;;;;;;;;;23.40;21.00;;;;;10.98;44.97;99909.44;5027832;28;8861;-79
2023/05/09 03:57:24;;;;;;;;;59.75;48.25;;;;;10.98;45.13;99904.19;5045190;28;8852;-81
2023/05/09 03:59:55;;;;;;;;;22.40;21.20;;;;;10.96;44.78;99908.63;5028556;28;9572;-79
2023/05/09 04:02:24;;;;;;;;;19.80;16.00;;;;;11.03;45.00;99910.25;5058510;28;8962;-80
2023/05/09 04:04:54;;;;;;;;;11.40;11.40;;;;;11.10;44.90;99908.38;5066564;28;8862;-82
2023/05/09 04:07:27;;;;;;;;;17.60;16.40;;;;;11.18;44.54;99915.25;5064062;28;8863;-80
2023/05/09 04:09:56;;;;;;;;;12.60;12.20;;;;;11.22;44.79;99902.91;5065334;28;8954;-80
2023/05/09 04:12:25;;;;;;;;;14.60;12.80;;;;;11.13;44.39;99913.59;5065761;28;8927;-80
2023/05/09 04:14:53;;;;;;;;;32.00;29.00;;;;;11.13;44.58;99916.22;5062065;28;8884;-78
2023/05/09 04:17:25;;;;;;;;;13.40;12.60;;;;;11.10;44.13;99909.22;5029167;28;8845;-81
2023/05/09 04:19:55;;;;;;;;;17.00;12.60;;;;;11.11;44.32;99916.25;5045199;28;8856;-80
2023/05/09 04:22:25;;;;;;;;;12.00;11.00;;;;;11.12;44.42;99919.72;5048083;28;8876;-79
2023/05/09 04:24:55;;;;;;;;;12.80;11.60;;;;;11.09;44.69;99917.19;5051950;28;8930;-80
2023/05/09 04:27:24;;;;;;;;;11.40;11.40;;;;;11.13;44.29;99932.00;5049227;28;8857;-79
2023/05/09 04:29:53;;;;;;;;;13.40;13.40;;;;;11.16;43.99;99934.56;5031217;28;8869;-80
2023/05/09 04:32:22;;;;;;;;;25.00;22.40;;;;;11.24;44.07;99924.78;5064987;28;8954;-81
2023/05/09 04:34:51;;;;;;;;;67.25;53.25;;;;;11.36;44.29;99927.19;5014837;28;8897;-79
2023/05/09 04:37:26;;;;;;;;;40.00;37.00;;;;;11.42;43.58;99925.34;5065480;28;8920;-79
2023/05/09 04:39:56;;;;;;;;;13.40;13.00;;;;;11.30;43.94;99932.56;5034174;28;8849;-81
2023/05/09 04:42:33;;;;;;;;;15.40;15.00;;;;;11.45;43.31;99926.16;5064979;28;8845;-79
2023/05/09 04:45:03;;;;;;;;;18.00;16.40;;;;;11.61;43.24;99928.50;5048507;28;8899;-79
2023/05/09 04:47:32;;;;;;;;;16.00;16.00;;;;;11.71;43.29;99930.94;5015114;28;8846;-81
2023/05/09 04:50:01;;;;;;;;;16.60;15.60;;;;;11.82;42.80;99928.09;5051563;28;8886;-81
2023/05/09 04:52:31;;;;;;;;;17.20;15.00;;;;;11.96;42.54;99919.94;5026974;28;8863;-80
2023/05/09 04:55:00;;;;;;;;;15.80;14.20;;;;;12.01;42.39;99923.34;5022802;28;8858;-80
2023/05/09 04:57:34;;;;;;;;;12.60;12.00;;;;;11.97;43.07;99921.66;4979298;28;8867;-80
2023/05/09 05:00:06;;;;;;;;;15.00;15.00;;;;;11.98;43.33;99922.56;4962255;28;8859;-81
2023/05/09 05:02:37;;;;;;;;;13.40;11.20;;;;;11.98;43.27;99918.16;5006861;28;8838;-80
2023/05/09 05:05:06;;;;;;;;;14.40;13.40;;;;;12.05;42.88;99917.13;4990911;28;8862;-80
2023/05/09 05:07:44;;;;;;;;;16.80;16.80;;;;;12.18;42.94;99914.22;4915604;28;8888;-80
2023/05/09 05:10:18;;;;;;;;;18.20;17.00;;;;;12.24;42.77;99916.69;4990472;28;8842;-80
2023/05/09 05:12:51;;;;;;;;;15.20;14.40;;;;;12.29;42.82;99907.78;4977202;28;8854;-80
2023/05/09 05:15:20;;;;;;;;;14.80;14.40;;;;;12.31;42.13;99913.03;4979783;28;8879;-79
2023/05/09 05:17:49;;;;;;;;;17.00;16.20;;;;;12.38;42.32;99919.91;4990194;28;8870;-79
2023/05/09 05:20:22;;;;;;;;;13.20;13.20;;;;;12.44;42.47;99916.28;5007089;28;8866;-80
2023/05/09 05:22:53;;;;;;;;;18.80;17.80;;;;;12.38;42.75;99914.63;4996056;28;8857;-81
2023/05/09 05:25:23;;;;;;;;;16.00;14.00;;;;;12.51;42.23;99915.22;5047790;28;8872;-79
2023/05/09 05:27:54;;;;;;;;;14.00;12.40;;;;;12.61;42.35;99902.69;5047802;28;8857;-82
2023/05/09 05:30:22;;;;;;;;;15.60;14.00;;;;;12.64;42.19;99907.91;5047012;28;8864;-81
2023/05/09 05:32:52;;;;;;;;;20.60;19.40;;;;;12.74;41.92;99909.41;5030091;28;8833;-80
2023/05/09 05:35:23;;;;;;;;;16.40;15.20;;;;;12.86;42.44;99917.06;5031953;28;8924;-82
2023/05/09 05:37:55;;;;;;;;;16.60;16.60;;;;;13.04;42.13;99917.53;5054070;28;8831;-81
2023/05/09 05:40:24;;;;;;;;;22.60;21.80;;;;;13.04;42.06;99922.78;5017314;28;8842;-75
2023/05/09 05:42:54;;;;;;;;;19.60;19.20;;;;;13.17;41.86;99918.94;5039425;28;8916;-74
2023/05/09 05:45:24;;;;;;;;;15.40;14.60;;;;;13.11;42.11;99922.59;5020350;28;8852;-77
2023/05/09 05:47:56;;;;;;;;;18.40;17.40;;;;;13.27;41.86;99917.78;5024483;28;9003;-75
2023/05/09 05:50:25;;;;;;;;;19.20;17.60;;;;;13.44;41.55;99922.63;5038408;28;9706;-76
2023/05/09 05:52:56;;;;;;;;;19.40;19.40;;;;;13.33;41.94;99919.38;5029957;28;8903;-75
2023/05/09 05:55:24;;;;;;;;;23.20;20.80;;;;;13.39;41.67;99918.38;5030141;28;8869;-75
2023/05/09 05:57:53;;;;;;;;;21.20;20.40;;;;;13.28;42.15;99918.66;5009900;28;8998;-75
2023/05/09 06:00:22;;;;;;;;;17.60;17.60;;;;;13.28;42.42;99926.59;5026433;28;9695;-75
2023/05/09 06:02:58;;;;;;;;;21.20;21.00;;;;;13.40;42.20;99917.47;5026150;28;8998;-76
2023/05/09 06:05:50;;;;;;;;;20.60;20.00;;;;;13.55;41.81;99919.69;5010130;28;9480;-76
2023/05/09 06:08:21;;;;;;;;;21.80;21.80;;;;;13.56;41.64;99918.78;5009473;28;9002;-76
2023/05/09 06:10:49;;;;;;;;;20.20;19.20;;;;;13.56;41.94;99921.41;5044546;28;9631;-74
2023/05/09 06:13:18;;;;;;;;;21.60;20.00;;;;;13.70;41.63;99919.25;5017240;28;8880;-74
2023/05/09 06:15:57;;;;;;;;;23.00;22.60;;;;;13.87;41.60;99921.47;5034264;28;8858;-75
2023/05/09 06:18:43;;;;;;;;;26.40;23.20;;;;;14.06;41.20;99921.78;5066665;28;8862;-77
2023/05/09 06:21:12;;;;;;;;;23.40;22.00;;;;;14.13;40.82;99924.25;5049669;28;8872;-76
2023/05/09 06:23:42;;;;;;;;;25.80;25.00;;;;;14.18;41.00;99917.06;5066673;28;8890;-75
2023/05/09 06:26:31;;;;;;;;;24.20;23.20;;;;;14.37;40.57;99912.94;5064988;28;8856;-75
2023/05/09 06:29:00;;;;;;;;;26.80;26.40;;;;;14.47;40.26;99917.03;5037318;28;8995;-79
2023/05/09 06:31:29;;;;;;;;;24.80;24.20;;;;;14.65;40.13;99912.06;5045998;28;8940;-75
2023/05/09 06:33:58;;;;;;;;;29.20;25.20;;;;;14.75;40.19;99916.19;5045634;28;9658;-80
2023/05/09 06:36:26;;;;;;;;;29.00;27.20;;;;;14.92;39.70;99918.28;5062501;28;8844;-75
2023/05/09 06:38:57;;;;;;;;;28.40;24.80;;;;;15.06;41.09;99909.91;5048993;28;8844;-77
2023/05/09 06:41:26;;;;;;;;;31.20;29.80;;;;;15.21;41.07;99905.88;5048974;28;9128;-75
2023/05/09 06:43:55;;;;;;;;;32.20;29.60;;;;;15.23;41.31;99904.03;5053727;28;8881;-77
2023/05/09 06:46:24;;;;;;;;;27.80;27.40;;;;;15.37;41.69;99901.75;5013605;28;8865;-76
2023/05/09 06:48:53;;;;;;;;;28.60;26.20;;;;;15.36;42.35;99904.44;5056298;28;9594;-75
2023/05/09 06:51:21;;;;;;;;;30.40;25.40;;;;;15.27;43.39;99903.00;5065458;28;9077;-77
2023/05/09 06:53:51;;;;;;;;;24.20;23.00;;;;;15.36;43.07;99893.84;5048912;28;9605;-75
2023/05/09 06:56:21;;;;;;;;;25.80;21.80;;;;;15.35;43.36;99902.72;5016033;28;8944;-74
2023/05/09 06:58:51;;;;;;;;;23.40;23.40;;;;;15.26;43.40;99898.59;5050137;28;9557;-76
2023/05/09 07:01:20;;;;;;;;;19.80;19.80;;;;;15.34;43.25;99893.91;5048682;28;8940;-76
2023/05/09 07:03:49;;;;;;;;;18.20;15.80;;;;;15.39;43.25;99894.59;4999600;28;8885;-78
2023/05/09 07:06:17;;;;;;;;;22.40;20.00;;;;;15.58;42.78;99899.25;5065619;28;8864;-80
2023/05/09 07:08:46;;;;;;;;;24.40;23.40;;;;;15.69;42.88;99898.91;5031787;28;8860;-77
2023/05/09 07:11:15;;;;;;;;;22.20;19.00;;;;;15.61;42.92;99897.38;5049527;28;8854;-74
2023/05/09 07:13:45;;;;;;;;;21.80;21.40;;;;;15.59;43.15;99906.28;4995555;28;8858;-74
2023/05/09 07:16:13;;;;;;;;;19.40;17.80;;;;;15.67;42.93;99908.69;5044184;28;8881;-75
2023/05/09 07:18:42;;;;;;;;;21.40;19.00;;;;;15.75;43.07;99906.63;5044177;28;8850;-73
2023/05/09 07:21:11;;;;;;;;;20.40;19.00;;;;;15.82;42.85;99905.47;5027297;28;8893;-76
2023/05/09 07:23:40;;;;;;;;;19.00;19.00;;;;;15.79;42.53;99901.16;5044009;28;9604;-73
2023/05/09 07:26:09;;;;;;;;;20.20;19.60;;;;;15.89;42.41;99907.00;5043633;28;8854;-73
2023/05/09 07:28:38;;;;;;;;;23.80;21.60;;;;;15.91;42.26;99899.84;5043936;28;8905;-74
2023/05/09 07:31:08;;;;;;;;;25.80;21.40;;;;;15.82;42.96;99900.19;5043803;28;8882;-74
2023/05/09 07:33:37;;;;;;;;;25.20;24.00;;;;;15.83;43.15;99896.59;5046297;28;9061;-72
2023/05/09 07:36:06;;;;;;;;;34.25;28.50;;;;;15.68;43.58;99898.03;5046832;28;8860;-75
2023/05/09 07:38:35;;;;;;;;;25.60;24.20;;;;;15.85;43.21;99897.44;5045193;28;9673;-76
2023/05/09 07:41:04;;;;;;;;;28.80;27.20;;;;;15.82;43.24;99901.03;5011704;28;8887;-74
2023/05/09 07:43:33;;;;;;;;;34.00;32.25;;;;;15.83;43.13;99904.53;5047010;28;8861;-74
2023/05/09 07:46:02;;;;;;;;;23.80;23.00;;;;;15.85;43.04;99900.06;5015053;28;8849;-73
2023/05/09 07:48:32;;;;;;;;;21.40;21.00;;;;;15.86;43.30;99901.78;5046614;28;8976;-75
2023/05/09 07:51:01;;;;;;;;;19.80;19.40;;;;;16.04;42.60;99902.91;5027559;28;8995;-75
2023/05/09 07:53:30;;;;;;;;;23.80;21.80;;;;;16.15;42.36;99897.16;5028183;28;8844;-74
2023/05/09 07:55:58;;;;;;;;;20.20;19.40;;;;;16.35;42.44;99889.28;5045525;28;9656;-73
2023/05/09 07:58:27;;;;;;;;;19.20;18.20;;;;;16.37;42.61;99891.91;5046229;28;8861;-73
2023/05/09 08:00:56;;;;;;;;;20.40;18.00;;;;;16.28;42.61;99895.75;5054479;28;8863;-73
2023/05/09 08:03:26;;;;;;;;;19.20;18.60;;;;;16.13;42.96;99899.88;5066638;28;8858;-72
2023/05/09 08:05:56;;;;;;;;;23.20;20.20;;;;;16.19;43.09;99893.47;5066228;28;8868;-73
2023/05/09 08:08:25;;;;;;;;;18.80;18.00;;;;;16.37;42.74;99891.91;5066410;28;8850;-75
2023/05/09 08:10:54;;;;;;;;;23.00;21.00;;;;;16.42;42.68;99888.13;5065147;28;8874;-74
2023/05/09 08:13:23;;;;;;;;;21.20;20.60;;;;;16.42;42.44;99896.09;5066330;28;8866;-74
2023/05/09 08:15:52;;;;;;;;;21.40;19.00;;;;;16.50;42.32;99887.88;5066343;28;8861;-77
2023/05/09 08:18:21;;;;;;;;;19.20;18.80;;;;;16.56;42.10;99890.25;5066673;28;8846;-73
2023/05/09 08:20:50;;;;;;;;;20.60;18.60;;;;;16.65;41.93;99886.38;5065982;28;8862;-73
2023/05/09 08:23:20;;;;;;;;;21.20;18.40;;;;;16.66;42.15;99887.25;5066075;28;8916;-74
2023/05/09 08:25:53;;;;;;;;;20.20;19.60;;;;;16.68;42.01;99891.56;5064966;28;8984;-75
2023/05/09 08:28:22;;;;;;;;;25.20;24.40;;;;;16.77;41.77;99892.97;5047086;28;9600;-77
2023/05/09 08:30:51;;;;;;;;;23.60;20.60;;;;;16.89;41.24;99886.28;5066306;28;8878;-74
2023/05/09 08:33:20;;;;;;;;;18.80;18.20;;;;;16.95;41.70;99889.56;5065864;28;8878;-74
2023/05/09 08:35:50;;;;;;;;;24.60;24.20;;;;;17.08;41.24;99889.91;5065987;28;8871;-73
2023/05/09 08:38:21;;;;;;;;;26.60;24.60;;;;;17.02;41.16;99892.81;5066052;28;9643;-74
2023/05/09 08:40:50;;;;;;;;;25.00;25.00;;;;;16.91;41.48;99890.63;5066278;28;8880;-74
2023/05/09 08:43:22;;;;;;;;;26.80;25.40;;;;;16.96;41.01;99890.41;5066433;28;8850;-77
2023/05/09 08:45:54;;;;;;;;;26.20;23.80;;;;;17.12;40.89;99883.53;5065978;28;8874;-75
2023/05/09 08:48:23;;;;;;;;;23.60;23.60;;;;;17.17;41.02;99888.63;5047163;28;9607;-75
2023/05/09 08:50:53;;;;;;;;;22.60;21.00;;;;;17.18;40.83;99893.03;5047596;28;8962;-74
2023/05/09 08:53:24;;;;;;;;;24.40;23.60;;;;;17.44;40.20;99888.41;5066206;28;8846;-75
2023/05/09 08:55:53;;;;;;;;;25.80;23.80;;;;;17.52;39.90;99896.91;5066044;28;8843;-73
2023/05/09 08:58:22;;;;;;;;;29.20;26.80;;;;;17.54;39.31;99889.72;5047294;28;8854;-75
2023/05/09 09:00:50;;;;;;;;;26.60;24.80;;;;;17.66;38.93;99890.97;5065806;28;8884;-73
2023/05/09 09:03:20;;;;;;;;;27.00;24.20;;;;;17.59;39.03;99887.75;5065794;28;8897;-72
2023/05/09 09:05:51;;;;;;;;;25.80;25.00;;;;;17.77;39.11;99884.22;5030959;28;8889;-73
2023/05/09 09:08:21;;;;;;;;;20.80;20.40;;;;;17.94;39.20;99882.59;5068713;28;8865;-77
2023/05/09 09:10:52;;;;;;;;;23.20;20.20;;;;;17.97;39.41;99885.97;5069260;28;8870;-74
2023/05/09 09:13:23;;;;;;;;;22.60;22.40;;;;;18.15;38.36;99875.44;5069107;28;8866;-76
2023/05/09 09:15:53;;;;;;;;;21.60;21.60;;;;;18.25;38.69;99871.44;5068895;28;8959;-75
2023/05/09 09:18:27;;;;;;;;;21.20;20.80;;;;;18.32;38.32;99870.16;5067753;28;8866;-75
2023/05/09 09:20:59;;;;;;;;;19.20;18.20;;;;;18.33;37.88;99879.91;5067658;28;8855;-77
2023/05/09 09:23:30;;;;;;;;;19.00;18.20;;;;;18.27;38.27;99877.53;5069677;28;8854;-75
2023/05/09 09:26:03;;;;;;;;;19.20;19.20;;;;;18.25;38.45;99878.53;5069624;28;8838;-74
2023/05/09 09:28:34;;;;;;;;;17.60;16.60;;;;;18.26;38.63;99881.13;5068319;28;8838;-75
2023/05/09 09:31:19;;;;;;;;;18.20;17.60;;;;;18.50;38.53;99873.75;5069617;28;8862;-74
2023/05/09 09:33:48;;;;;;;;;20.00;17.40;;;;;18.17;38.41;99873.56;5050780;28;8855;-75
2023/05/09 09:36:17;;;;;;;;;20.00;17.00;;;;;17.94;38.32;99871.97;5069798;28;9631;-77
2023/05/09 09:38:46;;;;;;;;;19.20;17.40;;;;;17.86;38.45;99867.00;5068944;28;8842;-78
2023/05/09 09:41:16;;;;;;;;;21.00;18.40;;;;;17.81;38.51;99869.00;5069442;28;8896;-74
2023/05/09 09:43:46;;;;;;;;;23.00;21.20;;;;;18.16;38.82;99869.19;5069396;28;8834;-74
2023/05/09 09:46:17;;;;;;;;;14.60;14.60;;;;;18.31;37.79;99871.13;5069403;28;8967;-74
2023/05/09 09:48:49;;;;;;;;;20.60;19.40;;;;;18.16;38.16;99874.53;5069281;28;8864;-74
2023/05/09 09:51:19;;;;;;;;;20.00;17.00;;;;;18.10;38.22;99866.81;5069210;28;8838;-78
2023/05/09 09:53:48;;;;;;;;;17.20;16.20;;;;;18.06;37.73;99865.22;5069167;28;8835;-75
2023/05/09 09:56:20;;;;;;;;;17.40;16.40;;;;;18.21;37.56;99859.19;5069363;28;8839;-74
2023/05/09 09:58:49;;;;;;;;;15.40;15.40;;;;;18.27;37.71;99856.25;5069256;28;8862;-75
2023/05/09 10:01:18;;;;;;;;;14.40;14.40;;;;;18.33;36.89;99845.31;5069554;28;8978;-75
2023/05/09 10:03:47;;;;;;;;;14.60;13.80;;;;;18.38;37.24;99844.22;5068395;28;8863;-76
2023/05/09 10:06:17;;;;;;;;;15.40;15.40;;;;;18.52;37.11;99836.41;5070264;28;8855;-73
2023/05/09 10:08:47;;;;;;;;;16.80;16.40;;;;;18.28;37.11;99839.31;5069426;28;8963;-75
2023/05/09 10:11:17;;;;;;;;;16.80;16.80;;;;;18.52;36.71;99841.75;5068074;28;8870;-75
2023/05/09 10:13:46;;;;;;;;;15.40;15.20;;;;;18.67;36.35;99830.31;5069228;28;8874;-75
2023/05/09 10:16:15;;;;;;;;;11.40;11.40;;;;;18.65;35.86;99834.00;5067671;28;8874;-75
2023/05/09 10:18:45;;;;;;;;;14.60;13.80;;;;;18.35;36.62;99838.09;5068580;28;8885;-74
2023/05/09 10:21:15;;;;;;;;;15.60;15.60;;;;;18.73;36.49;99835.34;5069051;28;9646;-75
2023/05/09 10:23:51;;;;;;;;;13.20;13.20;;;;;18.77;35.24;99825.41;5068888;28;9713;-76
2023/05/09 10:26:26;;;;;;;;;14.20;14.20;;;;;18.60;35.90;99820.91;5050084;28;8870;-75
2023/05/09 10:28:57;;;;;;;;;15.00;13.80;;;;;18.52;36.42;99829.28;5050057;28;8858;-76
2023/05/09 10:31:27;;;;;;;;;13.40;12.40;;;;;18.77;36.12;99833.38;5016915;28;8993;-76
2023/05/09 10:33:58;;;;;;;;;15.20;13.80;;;;;18.75;35.25;99830.78;5048690;28;8870;-78
2023/05/09 10:36:29;;;;;;;;;14.80;14.20;;;;;18.85;35.51;99825.88;5047419;28;8837;-76
2023/05/09 10:38:59;;;;;;;;;13.80;12.40;;;;;18.74;35.58;99821.09;5046950;28;8922;-73
2023/05/09 10:41:29;;;;;;;;;17.40;16.20;;;;;18.79;35.69;99825.34;5048980;28;8845;-75
2023/05/09 10:43:59;;;;;;;;;12.80;12.80;;;;;18.72;35.72;99822.97;5048798;28;8884;-74
2023/05/09 10:46:28;;;;;;;;;11.60;11.60;;;;;18.64;35.81;99822.47;5051775;28;8867;-77
2023/05/09 10:48:57;;;;;;;;;10.80;10.80;;;;;18.61;35.88;99824.44;5070165;28;8892;-75
2023/05/09 10:51:26;;;;;;;;;13.40;12.80;;;;;18.57;36.25;99818.41;5068515;28;8882;-74
2023/05/09 10:53:56;;;;;;;;;10.60;10.60;;;;;18.49;35.64;99825.91;5068154;28;8838;-78
2023/05/09 10:56:28;;;;;;;;;9.60;9.60;;;;;18.11;36.51;99821.50;5068535;28;8884;-77
2023/05/09 10:58:59;;;;;;;;;12.20;12.20;;;;;18.12;36.45;99817.06;5068169;28;8877;-74
2023/05/09 11:01:31;;;;;;;;;10.60;10.60;;;;;18.31;35.75;99822.38;5068375;28;8951;-74
2023/05/09 11:04:01;;;;;;;;;8.80;8.80;;;;;18.27;35.97;99821.66;5067964;28;8858;-74
2023/05/09 11:06:49;;;;;;;;;11.40;11.40;;;;;18.33;35.31;99823.16;5066774;28;8893;-76
2023/05/09 11:09:31;;;;;;;;;12.80;12.20;;;;;18.40;35.37;99823.69;5066488;28;8866;-76
2023/05/09 11:12:08;;;;;;;;;10.40;10.40;;;;;18.20;35.18;99822.88;5067852;28;8862;-77
2023/05/09 11:14:44;;;;;;;;;12.20;11.60;;;;;18.30;35.36;99816.16;5068264;28;8963;-76
2023/05/09 11:17:14;;;;;;;;;0.00;0.00;;;;;18.48;35.33;99808.22;5066532;28;8866;-73
2023/05/09 11:20:05;;;;;;;;;9.80;9.80;;;;;18.85;34.87;99804.56;5067944;28;8862;-75
2023/05/09 11:22:40;;;;;;;;;11.00;10.00;;;;;19.04;34.96;99792.97;4972737;28;8850;-74
2023/05/09 11:25:11;;;;;;;;;8.40;7.80;;;;;19.15;34.61;99803.09;5005506;28;8858;-78
2023/05/09 11:27:43;;;;;;;;;9.80;9.80;;;;;19.01;34.46;99798.47;5005331;28;8947;-80
2023/05/09 11:30:16;;;;;;;;;8.60;8.60;;;;;19.11;34.05;99802.38;5004717;28;8866;-76
2023/05/09 11:32:46;;;;;;;;;8.60;8.60;;;;;18.89;34.11;99790.19;5004808;28;8888;-74
2023/05/09 11:35:17;;;;;;;;;9.00;8.00;;;;;18.98;34.02;99795.97;5005214;28;8874;-77
2023/05/09 11:37:48;;;;;;;;;7.40;7.40;;;;;18.93;34.21;99786.41;4996153;28;8886;-76
2023/05/09 11:40:18;;;;;;;;;7.40;7.40;;;;;18.82;34.54;99790.56;4973100;28;8862;-76
2023/05/09 11:42:49;;;;;;;;;7.80;6.00;;;;;18.66;35.02;99796.63;5005194;28;8862;-76